Midway, Missouri
Current Conditions -  °F | °C
As of 5:54 PM on Thursday 18 Dec 2014 (Local Time) from KCOU Reporting Station
Overcast Overcast  
Wind Chill: 28°   Ceiling: 800
Heat Index: 33°   Visibility: 9mi
Dew Point: 30°   Wind: 6mph
Humidity: 89%   Direction: 70°ENE
Pressure: 30.22"   Gusts: NA
Location:  39.0235°N, 92.2896°W
Report Text: KCOU 182354Z 07005KT 9SM OVC008 01/M01 A3022 RMK AO2 SLP241 60000 T00061011 10011 20000 51009
Loading
Personal Weather Stations






























Interactive Weather Map New forecast layout! Learn more

10-Day Weather Forecast

Advertisements
Track Severe Weather on mobile